sensor_id;sensor_type;location;lat;lon;timestamp;P1;durP1;ratioP1;P2;durP2;ratioP2
37459;SDS011;23318;50.966;5.284;2023-02-01T00:01:29;23.25;;;6.38;;
37459;SDS011;23318;50.966;5.284;2023-02-01T00:03:54;30.88;;;7.03;;
37459;SDS011;23318;50.966;5.284;2023-02-01T00:06:20;23.55;;;7.00;;
37459;SDS011;23318;50.966;5.284;2023-02-01T00:08:46;28.13;;;6.72;;
37459;SDS011;23318;50.966;5.284;2023-02-01T00:11:12;20.42;;;7.03;;
37459;SDS011;23318;50.966;5.284;2023-02-01T00:13:39;19.33;;;7.65;;
37459;SDS011;23318;50.966;5.284;2023-02-01T00:16:15;24.63;;;6.80;;
37459;SDS011;23318;50.966;5.284;2023-02-01T00:18:46;26.45;;;7.60;;
37459;SDS011;23318;50.966;5.284;2023-02-01T00:21:13;35.65;;;8.07;;
37459;SDS011;23318;50.966;5.284;2023-02-01T00:23:41;28.83;;;7.18;;
37459;SDS011;23318;50.966;5.284;2023-02-01T00:26:10;28.40;;;8.02;;
37459;SDS011;23318;50.966;5.284;2023-02-01T00:28:42;27.77;;;8.55;;
37459;SDS011;23318;50.966;5.284;2023-02-01T00:31:08;29.20;;;8.77;;
37459;SDS011;23318;50.966;5.284;2023-02-01T00:33:33;33.53;;;9.50;;
37459;SDS011;23318;50.966;5.284;2023-02-01T00:36:00;25.48;;;8.63;;
37459;SDS011;23318;50.966;5.284;2023-02-01T00:38:27;31.40;;;8.70;;
37459;SDS011;23318;50.966;5.284;2023-02-01T00:41:07;32.20;;;9.55;;
37459;SDS011;23318;50.966;5.284;2023-02-01T00:43:37;23.75;;;9.82;;
37459;SDS011;23318;50.966;5.284;2023-02-01T00:46:03;30.10;;;9.65;;
37459;SDS011;23318;50.966;5.284;2023-02-01T00:48:29;26.48;;;8.95;;
37459;SDS011;23318;50.966;5.284;2023-02-01T00:50:58;30.83;;;10.05;;
37459;SDS011;23318;50.966;5.284;2023-02-01T00:53:29;33.25;;;9.63;;
37459;SDS011;23318;50.966;5.284;2023-02-01T00:55:54;40.92;;;9.98;;
37459;SDS011;23318;50.966;5.284;2023-02-01T00:58:21;32.10;;;9.95;;
37459;SDS011;23318;50.966;5.284;2023-02-01T01:00:54;28.95;;;9.80;;
37459;SDS011;23318;50.966;5.284;2023-02-01T01:03:38;32.45;;;9.48;;
37459;SDS011;23318;50.966;5.284;2023-02-01T01:06:10;32.25;;;10.35;;
37459;SDS011;23318;50.966;5.284;2023-02-01T01:08:37;33.25;;;10.63;;
37459;SDS011;23318;50.966;5.284;2023-02-01T01:11:08;29.00;;;10.02;;
37459;SDS011;23318;50.966;5.284;2023-02-01T01:13:37;31.23;;;9.95;;
37459;SDS011;23318;50.966;5.284;2023-02-01T01:16:04;29.92;;;9.55;;
37459;SDS011;23318;50.966;5.284;2023-02-01T01:18:31;27.25;;;9.20;;
37459;SDS011;23318;50.966;5.284;2023-02-01T01:20:58;30.98;;;9.18;;
37459;SDS011;23318;50.966;5.284;2023-02-01T01:23:24;34.65;;;9.88;;
37459;SDS011;23318;50.966;5.284;2023-02-01T01:25:50;27.75;;;10.32;;
37459;SDS011;23318;50.966;5.284;2023-02-01T01:28:16;33.40;;;9.88;;
37459;SDS011;23318;50.966;5.284;2023-02-01T01:30:41;26.13;;;8.32;;
37459;SDS011;23318;50.966;5.284;2023-02-01T01:33:07;29.60;;;9.25;;
37459;SDS011;23318;50.966;5.284;2023-02-01T01:35:33;32.30;;;9.73;;
37459;SDS011;23318;50.966;5.284;2023-02-01T01:37:59;29.50;;;10.25;;
37459;SDS011;23318;50.966;5.284;2023-02-01T01:40:26;39.03;;;11.25;;
37459;SDS011;23318;50.966;5.284;2023-02-01T01:42:53;34.45;;;10.80;;
37459;SDS011;23318;50.966;5.284;2023-02-01T01:47:54;33.10;;;10.73;;
37459;SDS011;23318;50.966;5.284;2023-02-01T01:50:33;32.00;;;10.93;;
37459;SDS011;23318;50.966;5.284;2023-02-01T01:53:05;27.55;;;10.65;;
37459;SDS011;23318;50.966;5.284;2023-02-01T01:55:34;29.58;;;10.48;;
37459;SDS011;23318;50.966;5.284;2023-02-01T01:58:04;29.83;;;9.77;;
37459;SDS011;23318;50.966;5.284;2023-02-01T02:00:33;37.42;;;10.13;;
37459;SDS011;23318;50.966;5.284;2023-02-01T02:03:03;28.92;;;9.02;;
37459;SDS011;23318;50.966;5.284;2023-02-01T02:05:39;29.00;;;10.30;;
37459;SDS011;23318;50.966;5.284;2023-02-01T02:08:05;30.55;;;9.32;;
37459;SDS011;23318;50.966;5.284;2023-02-01T02:10:30;29.67;;;8.10;;
37459;SDS011;23318;50.966;5.284;2023-02-01T02:13:15;26.80;;;9.23;;
37459;SDS011;23318;50.966;5.284;2023-02-01T02:15:43;28.52;;;8.50;;
37459;SDS011;23318;50.966;5.284;2023-02-01T02:18:23;29.30;;;8.38;;
37459;SDS011;23318;50.966;5.284;2023-02-01T02:21:10;34.00;;;8.18;;
37459;SDS011;23318;50.966;5.284;2023-02-01T02:35:25;26.60;;;6.25;;
37459;SDS011;23318;50.966;5.284;2023-02-01T02:38:05;28.02;;;6.45;;
37459;SDS011;23318;50.966;5.284;2023-02-01T02:41:08;30.25;;;6.03;;
37459;SDS011;23318;50.966;5.284;2023-02-01T02:44:23;25.73;;;5.20;;
37459;SDS011;23318;50.966;5.284;2023-02-01T02:47:32;27.20;;;4.70;;
37459;SDS011;23318;50.966;5.284;2023-02-01T02:53:21;34.33;;;5.53;;
37459;SDS011;23318;50.966;5.284;2023-02-01T02:56:09;14.30;;;3.78;;
37459;SDS011;23318;50.966;5.284;2023-02-01T02:58:55;27.20;;;4.85;;
37459;SDS011;23318;50.966;5.284;2023-02-01T03:01:40;35.25;;;4.45;;
37459;SDS011;23318;50.966;5.284;2023-02-01T03:04:25;19.45;;;4.35;;
37459;SDS011;23318;50.966;5.284;2023-02-01T03:06:51;26.88;;;4.43;;
37459;SDS011;23318;50.966;5.284;2023-02-01T03:09:27;32.53;;;5.05;;
37459;SDS011;23318;50.966;5.284;2023-02-01T03:11:58;23.92;;;4.68;;
37459;SDS011;23318;50.966;5.284;2023-02-01T03:14:49;36.00;;;5.63;;
37459;SDS011;23318;50.966;5.284;2023-02-01T03:17:20;23.55;;;4.30;;
37459;SDS011;23318;50.966;5.284;2023-02-01T03:19:51;17.30;;;3.85;;
37459;SDS011;23318;50.966;5.284;2023-02-01T03:22:20;24.90;;;5.07;;
37459;SDS011;23318;50.966;5.284;2023-02-01T03:24:56;25.08;;;4.10;;
37459;SDS011;23318;50.966;5.284;2023-02-01T03:32:43;25.95;;;5.07;;
37459;SDS011;23318;50.966;5.284;2023-02-01T03:35:36;30.17;;;5.25;;
37459;SDS011;23318;50.966;5.284;2023-02-01T03:38:05;20.67;;;4.60;;
37459;SDS011;23318;50.966;5.284;2023-02-01T03:40:36;26.15;;;4.93;;
37459;SDS011;23318;50.966;5.284;2023-02-01T03:43:02;23.90;;;5.13;;
37459;SDS011;23318;50.966;5.284;2023-02-01T03:45:38;31.23;;;5.05;;
37459;SDS011;23318;50.966;5.284;2023-02-01T03:48:09;23.02;;;4.25;;
37459;SDS011;23318;50.966;5.284;2023-02-01T03:50:38;21.58;;;4.72;;
37459;SDS011;23318;50.966;5.284;2023-02-01T03:53:14;22.27;;;4.32;;
37459;SDS011;23318;50.966;5.284;2023-02-01T03:55:42;29.02;;;5.82;;
37459;SDS011;23318;50.966;5.284;2023-02-01T03:58:16;23.20;;;4.15;;
37459;SDS011;23318;50.966;5.284;2023-02-01T04:00:54;20.20;;;4.00;;
37459;SDS011;23318;50.966;5.284;2023-02-01T04:03:21;33.05;;;4.85;;
37459;SDS011;23318;50.966;5.284;2023-02-01T04:05:51;20.60;;;4.18;;
37459;SDS011;23318;50.966;5.284;2023-02-01T04:08:20;28.17;;;4.80;;
37459;SDS011;23318;50.966;5.284;2023-02-01T04:10:46;29.10;;;5.07;;
37459;SDS011;23318;50.966;5.284;2023-02-01T04:13:12;21.33;;;4.28;;
37459;SDS011;23318;50.966;5.284;2023-02-01T04:15:39;24.65;;;3.85;;
37459;SDS011;23318;50.966;5.284;2023-02-01T04:18:05;30.77;;;4.57;;
37459;SDS011;23318;50.966;5.284;2023-02-01T04:20:31;21.33;;;4.43;;
37459;SDS011;23318;50.966;5.284;2023-02-01T04:22:57;25.35;;;5.07;;
37459;SDS011;23318;50.966;5.284;2023-02-01T04:25:23;20.98;;;3.75;;
37459;SDS011;23318;50.966;5.284;2023-02-01T04:27:49;24.55;;;4.78;;
37459;SDS011;23318;50.966;5.284;2023-02-01T04:30:14;31.90;;;4.72;;
37459;SDS011;23318;50.966;5.284;2023-02-01T04:32:40;22.05;;;5.03;;
37459;SDS011;23318;50.966;5.284;2023-02-01T04:35:07;28.73;;;5.03;;
37459;SDS011;23318;50.966;5.284;2023-02-01T04:37:33;23.38;;;4.35;;
37459;SDS011;23318;50.966;5.284;2023-02-01T04:39:59;32.53;;;4.75;;
37459;SDS011;23318;50.966;5.284;2023-02-01T04:42:25;29.95;;;4.78;;
37459;SDS011;23318;50.966;5.284;2023-02-01T04:44:51;26.45;;;5.72;;
37459;SDS011;23318;50.966;5.284;2023-02-01T04:47:16;25.65;;;4.32;;
37459;SDS011;23318;50.966;5.284;2023-02-01T04:49:42;26.05;;;4.40;;
37459;SDS011;23318;50.966;5.284;2023-02-01T04:52:08;25.13;;;4.97;;
37459;SDS011;23318;50.966;5.284;2023-02-01T04:54:33;31.20;;;5.03;;
37459;SDS011;23318;50.966;5.284;2023-02-01T04:56:59;25.05;;;4.53;;
37459;SDS011;23318;50.966;5.284;2023-02-01T04:59:25;25.65;;;4.57;;
37459;SDS011;23318;50.966;5.284;2023-02-01T05:01:51;28.35;;;4.47;;
37459;SDS011;23318;50.966;5.284;2023-02-01T05:04:17;21.90;;;4.22;;
37459;SDS011;23318;50.966;5.284;2023-02-01T05:06:43;29.30;;;4.03;;
37459;SDS011;23318;50.966;5.284;2023-02-01T05:09:10;24.73;;;4.38;;
37459;SDS011;23318;50.966;5.284;2023-02-01T05:11:35;19.17;;;4.60;;
37459;SDS011;23318;50.966;5.284;2023-02-01T05:14:20;31.25;;;5.05;;
37459;SDS011;23318;50.966;5.284;2023-02-01T05:16:46;23.77;;;4.32;;
37459;SDS011;23318;50.966;5.284;2023-02-01T05:19:11;27.80;;;5.15;;
37459;SDS011;23318;50.966;5.284;2023-02-01T05:21:37;28.25;;;4.03;;
37459;SDS011;23318;50.966;5.284;2023-02-01T05:24:03;25.85;;;5.25;;
37459;SDS011;23318;50.966;5.284;2023-02-01T05:26:35;25.10;;;4.90;;
37459;SDS011;23318;50.966;5.284;2023-02-01T05:29:02;23.60;;;4.32;;
37459;SDS011;23318;50.966;5.284;2023-02-01T05:31:29;28.30;;;4.93;;
37459;SDS011;23318;50.966;5.284;2023-02-01T05:33:54;30.98;;;4.85;;
37459;SDS011;23318;50.966;5.284;2023-02-01T05:36:20;35.45;;;5.72;;
37459;SDS011;23318;50.966;5.284;2023-02-01T05:38:46;25.60;;;5.10;;
37459;SDS011;23318;50.966;5.284;2023-02-01T05:41:11;19.38;;;4.63;;
37459;SDS011;23318;50.966;5.284;2023-02-01T05:43:37;26.85;;;5.38;;
37459;SDS011;23318;50.966;5.284;2023-02-01T05:46:03;24.95;;;5.47;;
37459;SDS011;23318;50.966;5.284;2023-02-01T05:48:28;25.65;;;4.47;;
37459;SDS011;23318;50.966;5.284;2023-02-01T05:50:54;22.10;;;4.43;;
37459;SDS011;23318;50.966;5.284;2023-02-01T05:53:20;28.02;;;5.30;;
37459;SDS011;23318;50.966;5.284;2023-02-01T05:55:46;30.38;;;5.32;;
37459;SDS011;23318;50.966;5.284;2023-02-01T05:58:12;37.17;;;4.63;;
37459;SDS011;23318;50.966;5.284;2023-02-01T06:00:37;25.77;;;4.65;;
37459;SDS011;23318;50.966;5.284;2023-02-01T06:03:03;28.10;;;5.00;;
37459;SDS011;23318;50.966;5.284;2023-02-01T06:05:29;25.27;;;5.63;;
37459;SDS011;23318;50.966;5.284;2023-02-01T06:07:55;31.15;;;5.28;;
37459;SDS011;23318;50.966;5.284;2023-02-01T06:10:22;32.75;;;4.95;;
37459;SDS011;23318;50.966;5.284;2023-02-01T06:12:48;31.20;;;6.10;;
37459;SDS011;23318;50.966;5.284;2023-02-01T06:15:14;34.40;;;5.95;;
37459;SDS011;23318;50.966;5.284;2023-02-01T06:17:43;23.55;;;4.47;;
37459;SDS011;23318;50.966;5.284;2023-02-01T06:20:11;22.85;;;4.43;;
37459;SDS011;23318;50.966;5.284;2023-02-01T06:22:38;40.13;;;5.88;;
37459;SDS011;23318;50.966;5.284;2023-02-01T06:25:04;39.78;;;7.38;;
37459;SDS011;23318;50.966;5.284;2023-02-01T06:27:31;32.92;;;5.70;;
37459;SDS011;23318;50.966;5.284;2023-02-01T06:29:57;21.33;;;5.25;;
37459;SDS011;23318;50.966;5.284;2023-02-01T06:32:23;36.85;;;6.65;;
37459;SDS011;23318;50.966;5.284;2023-02-01T06:34:49;32.17;;;5.55;;
37459;SDS011;23318;50.966;5.284;2023-02-01T06:37:17;26.15;;;6.40;;
37459;SDS011;23318;50.966;5.284;2023-02-01T06:39:46;28.52;;;4.97;;
37459;SDS011;23318;50.966;5.284;2023-02-01T06:42:12;23.73;;;4.30;;
37459;SDS011;23318;50.966;5.284;2023-02-01T06:44:37;29.50;;;4.97;;
37459;SDS011;23318;50.966;5.284;2023-02-01T06:47:03;18.88;;;4.20;;
37459;SDS011;23318;50.966;5.284;2023-02-01T06:49:29;28.73;;;5.25;;
37459;SDS011;23318;50.966;5.284;2023-02-01T06:51:55;30.30;;;6.32;;
37459;SDS011;23318;50.966;5.284;2023-02-01T06:54:21;28.30;;;4.30;;
37459;SDS011;23318;50.966;5.284;2023-02-01T06:56:47;36.53;;;5.65;;
37459;SDS011;23318;50.966;5.284;2023-02-01T06:59:12;35.58;;;5.60;;
37459;SDS011;23318;50.966;5.284;2023-02-01T07:01:38;28.33;;;5.50;;
37459;SDS011;23318;50.966;5.284;2023-02-01T07:04:04;28.98;;;5.32;;
37459;SDS011;23318;50.966;5.284;2023-02-01T07:06:30;25.70;;;4.90;;
37459;SDS011;23318;50.966;5.284;2023-02-01T07:08:56;20.98;;;5.75;;
37459;SDS011;23318;50.966;5.284;2023-02-01T07:11:22;40.35;;;5.82;;
37459;SDS011;23318;50.966;5.284;2023-02-01T07:13:48;37.28;;;5.43;;
37459;SDS011;23318;50.966;5.284;2023-02-01T07:16:17;33.83;;;4.88;;
37459;SDS011;23318;50.966;5.284;2023-02-01T07:18:44;32.50;;;5.47;;
37459;SDS011;23318;50.966;5.284;2023-02-01T07:21:10;32.28;;;5.25;;
37459;SDS011;23318;50.966;5.284;2023-02-01T07:23:36;29.20;;;5.03;;
37459;SDS011;23318;50.966;5.284;2023-02-01T07:26:03;30.33;;;6.20;;
37459;SDS011;23318;50.966;5.284;2023-02-01T07:28:32;32.40;;;6.40;;
37459;SDS011;23318;50.966;5.284;2023-02-01T07:31:05;28.50;;;6.95;;
37459;SDS011;23318;50.966;5.284;2023-02-01T07:33:33;25.33;;;4.82;;
37459;SDS011;23318;50.966;5.284;2023-02-01T07:36:00;26.75;;;6.50;;
37459;SDS011;23318;50.966;5.284;2023-02-01T07:38:28;26.42;;;5.15;;
37459;SDS011;23318;50.966;5.284;2023-02-01T07:40:57;28.48;;;5.63;;
37459;SDS011;23318;50.966;5.284;2023-02-01T07:43:24;24.50;;;4.85;;
37459;SDS011;23318;50.966;5.284;2023-02-01T07:45:51;31.05;;;5.72;;
37459;SDS011;23318;50.966;5.284;2023-02-01T07:48:18;35.25;;;6.20;;
37459;SDS011;23318;50.966;5.284;2023-02-01T07:50:44;26.50;;;5.28;;
37459;SDS011;23318;50.966;5.284;2023-02-01T07:53:09;24.90;;;5.03;;
37459;SDS011;23318;50.966;5.284;2023-02-01T07:55:37;26.58;;;5.05;;
37459;SDS011;23318;50.966;5.284;2023-02-01T07:58:03;26.58;;;5.38;;
37459;SDS011;23318;50.966;5.284;2023-02-01T08:00:29;23.67;;;4.88;;
37459;SDS011;23318;50.966;5.284;2023-02-01T08:05:39;23.48;;;6.05;;
37459;SDS011;23318;50.966;5.284;2023-02-01T08:08:04;40.63;;;7.63;;
37459;SDS011;23318;50.966;5.284;2023-02-01T08:10:31;56.15;;;13.25;;
37459;SDS011;23318;50.966;5.284;2023-02-01T08:13:00;33.85;;;5.95;;
37459;SDS011;23318;50.966;5.284;2023-02-01T08:15:26;29.92;;;7.80;;
37459;SDS011;23318;50.966;5.284;2023-02-01T08:17:53;52.45;;;14.95;;
37459;SDS011;23318;50.966;5.284;2023-02-01T08:20:22;34.80;;;9.45;;
37459;SDS011;23318;50.966;5.284;2023-02-01T08:22:49;34.33;;;6.78;;
37459;SDS011;23318;50.966;5.284;2023-02-01T08:25:15;41.63;;;9.75;;
37459;SDS011;23318;50.966;5.284;2023-02-01T08:27:41;38.10;;;7.55;;
37459;SDS011;23318;50.966;5.284;2023-02-01T08:30:07;23.95;;;6.68;;
37459;SDS011;23318;50.966;5.284;2023-02-01T08:32:33;30.15;;;6.13;;
37459;SDS011;23318;50.966;5.284;2023-02-01T08:35:00;32.83;;;4.65;;
37459;SDS011;23318;50.966;5.284;2023-02-01T08:37:26;26.27;;;5.82;;
37459;SDS011;23318;50.966;5.284;2023-02-01T08:39:52;31.63;;;6.15;;
37459;SDS011;23318;50.966;5.284;2023-02-01T08:42:17;25.95;;;4.45;;
37459;SDS011;23318;50.966;5.284;2023-02-01T08:47:27;31.92;;;5.00;;
37459;SDS011;23318;50.966;5.284;2023-02-01T08:49:53;31.13;;;5.10;;
37459;SDS011;23318;50.966;5.284;2023-02-01T08:52:19;23.05;;;4.78;;
37459;SDS011;23318;50.966;5.284;2023-02-01T08:54:45;27.77;;;5.72;;
37459;SDS011;23318;50.966;5.284;2023-02-01T08:57:11;29.88;;;5.93;;
37459;SDS011;23318;50.966;5.284;2023-02-01T08:59:36;29.58;;;5.75;;
37459;SDS011;23318;50.966;5.284;2023-02-01T09:02:02;23.25;;;5.90;;
37459;SDS011;23318;50.966;5.284;2023-02-01T09:04:28;25.35;;;5.13;;
37459;SDS011;23318;50.966;5.284;2023-02-01T09:06:54;25.73;;;4.22;;
37459;SDS011;23318;50.966;5.284;2023-02-01T09:09:21;24.35;;;5.13;;
37459;SDS011;23318;50.966;5.284;2023-02-01T09:11:47;28.45;;;5.43;;
37459;SDS011;23318;50.966;5.284;2023-02-01T09:14:15;30.90;;;5.00;;
37459;SDS011;23318;50.966;5.284;2023-02-01T09:16:41;29.52;;;6.00;;
37459;SDS011;23318;50.966;5.284;2023-02-01T09:19:06;27.42;;;5.55;;
37459;SDS011;23318;50.966;5.284;2023-02-01T09:21:32;25.05;;;5.00;;
37459;SDS011;23318;50.966;5.284;2023-02-01T09:23:58;26.38;;;5.88;;
37459;SDS011;23318;50.966;5.284;2023-02-01T09:26:23;24.67;;;5.70;;
37459;SDS011;23318;50.966;5.284;2023-02-01T09:28:50;20.15;;;4.80;;
37459;SDS011;23318;50.966;5.284;2023-02-01T09:31:16;24.98;;;4.95;;
37459;SDS011;23318;50.966;5.284;2023-02-01T09:33:41;24.45;;;5.30;;
37459;SDS011;23318;50.966;5.284;2023-02-01T09:36:07;19.77;;;3.72;;
37459;SDS011;23318;50.966;5.284;2023-02-01T09:38:33;39.50;;;5.82;;
37459;SDS011;23318;50.966;5.284;2023-02-01T09:40:59;29.67;;;5.38;;
37459;SDS011;23318;50.966;5.284;2023-02-01T09:48:49;19.38;;;4.20;;
37459;SDS011;23318;50.966;5.284;2023-02-01T09:51:20;27.80;;;5.38;;
37459;SDS011;23318;50.966;5.284;2023-02-01T09:54:09;19.55;;;4.32;;
37459;SDS011;23318;50.966;5.284;2023-02-01T09:56:41;29.58;;;5.68;;
37459;SDS011;23318;50.966;5.284;2023-02-01T10:02:23;26.92;;;5.38;;
37459;SDS011;23318;50.966;5.284;2023-02-01T10:04:52;22.85;;;5.35;;
37459;SDS011;23318;50.966;5.284;2023-02-01T10:13:15;30.10;;;7.65;;
37459;SDS011;23318;50.966;5.284;2023-02-01T10:16:02;38.42;;;7.25;;
37459;SDS011;23318;50.966;5.284;2023-02-01T10:18:56;24.13;;;5.43;;
37459;SDS011;23318;50.966;5.284;2023-02-01T10:21:38;22.08;;;5.78;;
37459;SDS011;23318;50.966;5.284;2023-02-01T10:29:54;24.92;;;5.78;;
37459;SDS011;23318;50.966;5.284;2023-02-01T10:32:30;23.77;;;4.47;;
37459;SDS011;23318;50.966;5.284;2023-02-01T10:35:00;20.95;;;6.00;;
37459;SDS011;23318;50.966;5.284;2023-02-01T10:37:32;19.52;;;4.85;;
37459;SDS011;23318;50.966;5.284;2023-02-01T10:40:00;20.95;;;5.30;;
37459;SDS011;23318;50.966;5.284;2023-02-01T10:42:46;22.13;;;4.28;;
37459;SDS011;23318;50.966;5.284;2023-02-01T10:45:24;23.92;;;5.25;;
37459;SDS011;23318;50.966;5.284;2023-02-01T10:47:55;21.60;;;5.30;;
37459;SDS011;23318;50.966;5.284;2023-02-01T10:50:35;25.30;;;4.70;;
37459;SDS011;23318;50.966;5.284;2023-02-01T10:53:20;17.27;;;4.82;;
37459;SDS011;23318;50.966;5.284;2023-02-01T10:55:56;24.58;;;4.78;;
37459;SDS011;23318;50.966;5.284;2023-02-01T10:58:28;19.15;;;4.47;;
37459;SDS011;23318;50.966;5.284;2023-02-01T11:01:00;18.00;;;4.13;;
37459;SDS011;23318;50.966;5.284;2023-02-01T11:06:33;23.45;;;5.53;;
37459;SDS011;23318;50.966;5.284;2023-02-01T11:11:30;22.88;;;5.05;;
37459;SDS011;23318;50.966;5.284;2023-02-01T11:14:15;21.80;;;4.15;;
37459;SDS011;23318;50.966;5.284;2023-02-01T11:16:46;24.70;;;4.05;;
37459;SDS011;23318;50.966;5.284;2023-02-01T11:19:20;19.08;;;3.97;;
37459;SDS011;23318;50.966;5.284;2023-02-01T11:21:50;22.05;;;3.90;;
37459;SDS011;23318;50.966;5.284;2023-02-01T11:26:59;21.55;;;3.95;;
37459;SDS011;23318;50.966;5.284;2023-02-01T11:29:28;28.85;;;3.90;;
37459;SDS011;23318;50.966;5.284;2023-02-01T11:32:02;20.95;;;4.30;;
37459;SDS011;23318;50.966;5.284;2023-02-01T11:34:39;24.70;;;4.28;;
37459;SDS011;23318;50.966;5.284;2023-02-01T11:37:21;17.95;;;3.90;;
37459;SDS011;23318;50.966;5.284;2023-02-01T11:39:54;26.90;;;5.18;;
37459;SDS011;23318;50.966;5.284;2023-02-01T11:42:21;19.27;;;4.15;;
37459;SDS011;23318;50.966;5.284;2023-02-01T11:44:47;22.27;;;4.72;;
37459;SDS011;23318;50.966;5.284;2023-02-01T11:47:26;22.92;;;4.68;;
37459;SDS011;23318;50.966;5.284;2023-02-01T11:50:03;25.58;;;5.32;;
37459;SDS011;23318;50.966;5.284;2023-02-01T12:01:28;20.08;;;3.83;;
37459;SDS011;23318;50.966;5.284;2023-02-01T12:07:22;24.15;;;3.20;;
37459;SDS011;23318;50.966;5.284;2023-02-01T12:29:03;18.23;;;4.25;;
37459;SDS011;23318;50.966;5.284;2023-02-01T12:43:03;19.65;;;3.45;;
37459;SDS011;23318;50.966;5.284;2023-02-01T12:45:48;17.77;;;3.22;;
37459;SDS011;23318;50.966;5.284;2023-02-01T12:50:54;16.90;;;3.90;;
37459;SDS011;23318;50.966;5.284;2023-02-01T12:53:34;15.40;;;2.63;;
37459;SDS011;23318;50.966;5.284;2023-02-01T12:56:26;20.90;;;3.17;;
37459;SDS011;23318;50.966;5.284;2023-02-01T12:58:59;13.23;;;2.78;;
37459;SDS011;23318;50.966;5.284;2023-02-01T13:01:36;23.67;;;3.25;;
37459;SDS011;23318;50.966;5.284;2023-02-01T13:04:20;14.93;;;3.28;;
37459;SDS011;23318;50.966;5.284;2023-02-01T13:06:59;20.20;;;4.25;;
37459;SDS011;23318;50.966;5.284;2023-02-01T13:12:15;15.52;;;3.65;;
37459;SDS011;23318;50.966;5.284;2023-02-01T13:14:56;14.90;;;2.95;;
37459;SDS011;23318;50.966;5.284;2023-02-01T13:17:30;20.55;;;3.95;;
37459;SDS011;23318;50.966;5.284;2023-02-01T13:22:50;17.00;;;2.75;;
37459;SDS011;23318;50.966;5.284;2023-02-01T13:28:06;14.40;;;3.45;;
37459;SDS011;23318;50.966;5.284;2023-02-01T13:30:57;22.33;;;4.07;;
37459;SDS011;23318;50.966;5.284;2023-02-01T13:36:26;24.27;;;4.68;;
37459;SDS011;23318;50.966;5.284;2023-02-01T13:42:12;20.00;;;3.28;;
37459;SDS011;23318;50.966;5.284;2023-02-01T13:44:40;13.02;;;2.17;;
37459;SDS011;23318;50.966;5.284;2023-02-01T13:47:22;22.23;;;3.92;;
37459;SDS011;23318;50.966;5.284;2023-02-01T13:49:54;20.35;;;2.75;;
37459;SDS011;23318;50.966;5.284;2023-02-01T13:52:28;17.38;;;3.45;;
37459;SDS011;23318;50.966;5.284;2023-02-01T13:55:15;17.13;;;3.10;;
37459;SDS011;23318;50.966;5.284;2023-02-01T13:57:46;15.20;;;2.50;;
37459;SDS011;23318;50.966;5.284;2023-02-01T14:10:49;25.67;;;3.90;;
37459;SDS011;23318;50.966;5.284;2023-02-01T14:13:25;15.55;;;3.05;;
37459;SDS011;23318;50.966;5.284;2023-02-01T14:27:14;15.63;;;2.63;;
37459;SDS011;23318;50.966;5.284;2023-02-01T14:31:51;11.48;;;2.25;;
37459;SDS011;23318;50.966;5.284;2023-02-01T14:39:24;16.73;;;3.05;;
37459;SDS011;23318;50.966;5.284;2023-02-01T14:50:31;19.75;;;3.28;;
37459;SDS011;23318;50.966;5.284;2023-02-01T15:04:19;40.53;;;13.80;;
37459;SDS011;23318;50.966;5.284;2023-02-01T15:06:50;42.85;;;16.35;;
37459;SDS011;23318;50.966;5.284;2023-02-01T15:12:03;21.23;;;5.38;;
37459;SDS011;23318;50.966;5.284;2023-02-01T15:14:35;15.75;;;3.25;;
37459;SDS011;23318;50.966;5.284;2023-02-01T15:17:02;13.10;;;3.33;;
37459;SDS011;23318;50.966;5.284;2023-02-01T15:19:41;15.32;;;3.25;;
37459;SDS011;23318;50.966;5.284;2023-02-01T15:22:21;12.27;;;3.15;;
37459;SDS011;23318;50.966;5.284;2023-02-01T15:24:54;20.88;;;3.83;;
37459;SDS011;23318;50.966;5.284;2023-02-01T15:29:46;18.13;;;3.40;;
37459;SDS011;23318;50.966;5.284;2023-02-01T15:34:58;17.45;;;3.38;;
37459;SDS011;23318;50.966;5.284;2023-02-01T15:37:25;19.15;;;3.72;;
37459;SDS011;23318;50.966;5.284;2023-02-01T15:42:58;17.02;;;3.25;;
37459;SDS011;23318;50.966;5.284;2023-02-01T15:45:27;20.17;;;3.22;;
37459;SDS011;23318;50.966;5.284;2023-02-01T15:47:55;22.33;;;3.58;;
37459;SDS011;23318;50.966;5.284;2023-02-01T15:50:21;14.43;;;3.22;;
37459;SDS011;23318;50.966;5.284;2023-02-01T15:52:49;18.80;;;3.17;;
37459;SDS011;23318;50.966;5.284;2023-02-01T15:57:42;13.00;;;3.53;;
37459;SDS011;23318;50.966;5.284;2023-02-01T16:00:21;16.27;;;3.45;;
37459;SDS011;23318;50.966;5.284;2023-02-01T16:02:54;10.88;;;2.88;;
37459;SDS011;23318;50.966;5.284;2023-02-01T16:08:13;20.02;;;3.70;;
37459;SDS011;23318;50.966;5.284;2023-02-01T16:10:48;19.13;;;3.30;;
37459;SDS011;23318;50.966;5.284;2023-02-01T16:13:18;19.27;;;3.55;;
37459;SDS011;23318;50.966;5.284;2023-02-01T16:15:45;18.55;;;3.67;;
37459;SDS011;23318;50.966;5.284;2023-02-01T16:18:12;23.25;;;4.72;;
37459;SDS011;23318;50.966;5.284;2023-02-01T16:20:39;17.08;;;3.80;;
37459;SDS011;23318;50.966;5.284;2023-02-01T16:23:06;17.83;;;3.17;;
37459;SDS011;23318;50.966;5.284;2023-02-01T16:25:33;20.20;;;4.22;;
37459;SDS011;23318;50.966;5.284;2023-02-01T16:27:59;16.60;;;3.50;;
37459;SDS011;23318;50.966;5.284;2023-02-01T16:30:25;23.33;;;4.05;;
37459;SDS011;23318;50.966;5.284;2023-02-01T16:32:52;14.90;;;3.72;;
37459;SDS011;23318;50.966;5.284;2023-02-01T16:35:28;21.15;;;3.63;;
37459;SDS011;23318;50.966;5.284;2023-02-01T16:38:05;17.85;;;4.22;;
37459;SDS011;23318;50.966;5.284;2023-02-01T16:40:38;21.33;;;3.83;;
37459;SDS011;23318;50.966;5.284;2023-02-01T16:43:07;20.25;;;4.38;;
37459;SDS011;23318;50.966;5.284;2023-02-01T16:48:05;21.95;;;3.80;;
37459;SDS011;23318;50.966;5.284;2023-02-01T16:50:31;22.10;;;4.07;;
37459;SDS011;23318;50.966;5.284;2023-02-01T16:52:58;20.45;;;5.05;;
37459;SDS011;23318;50.966;5.284;2023-02-01T16:55:24;21.45;;;4.40;;
37459;SDS011;23318;50.966;5.284;2023-02-01T16:57:50;20.33;;;3.83;;
37459;SDS011;23318;50.966;5.284;2023-02-01T17:00:16;16.95;;;3.28;;
37459;SDS011;23318;50.966;5.284;2023-02-01T17:02:44;26.17;;;4.05;;
37459;SDS011;23318;50.966;5.284;2023-02-01T17:05:10;18.73;;;4.25;;
37459;SDS011;23318;50.966;5.284;2023-02-01T17:07:37;16.35;;;3.88;;
37459;SDS011;23318;50.966;5.284;2023-02-01T17:10:04;25.00;;;3.78;;
37459;SDS011;23318;50.966;5.284;2023-02-01T17:12:31;19.55;;;4.07;;
37459;SDS011;23318;50.966;5.284;2023-02-01T17:14:57;22.88;;;3.83;;
37459;SDS011;23318;50.966;5.284;2023-02-01T17:17:30;23.95;;;4.57;;
37459;SDS011;23318;50.966;5.284;2023-02-01T17:20:00;19.95;;;4.05;;
37459;SDS011;23318;50.966;5.284;2023-02-01T17:22:26;14.02;;;3.22;;
37459;SDS011;23318;50.966;5.284;2023-02-01T17:24:51;28.70;;;5.07;;
37459;SDS011;23318;50.966;5.284;2023-02-01T17:27:17;19.90;;;3.53;;
37459;SDS011;23318;50.966;5.284;2023-02-01T17:29:43;26.05;;;5.32;;
37459;SDS011;23318;50.966;5.284;2023-02-01T17:32:21;28.83;;;4.40;;
37459;SDS011;23318;50.966;5.284;2023-02-01T17:34:49;17.30;;;3.22;;
37459;SDS011;23318;50.966;5.284;2023-02-01T17:37:19;17.92;;;4.47;;
37459;SDS011;23318;50.966;5.284;2023-02-01T17:39:49;26.27;;;4.38;;
37459;SDS011;23318;50.966;5.284;2023-02-01T17:42:21;21.23;;;4.50;;
37459;SDS011;23318;50.966;5.284;2023-02-01T17:44:48;20.55;;;5.00;;
37459;SDS011;23318;50.966;5.284;2023-02-01T17:47:15;13.70;;;3.45;;
37459;SDS011;23318;50.966;5.284;2023-02-01T17:49:41;18.95;;;4.80;;
37459;SDS011;23318;50.966;5.284;2023-02-01T17:52:08;24.25;;;3.70;;
37459;SDS011;23318;50.966;5.284;2023-02-01T17:54:41;19.63;;;3.60;;